Time;durP1;ratioP1;P1;durP2;ratioP2;P2;SDS_P1;SDS_P2;PMS_P1;PMS_P2;Temp;Humidity;BMP_temperature;BMP_pressure;BME280_temperature;BME280_humidity;BME280_pressure;Samples;Min_cycle;Max_cycle;Signal;HPM_P1;HPM_P2
2022/12/22 03:26:51;;;;;;;14.50;7.22;;;10.50;97.70;;;;;;5134281;28;20115;-74
2022/12/22 03:29:17;;;;;;;17.92;8.25;;;10.60;97.70;;;;;;5136668;28;20039;-74
2022/12/22 03:31:42;;;;;;;16.13;7.70;;;10.50;97.70;;;;;;5137660;28;20033;-73
2022/12/22 03:34:08;;;;;;;16.05;8.15;;;10.60;97.70;;;;;;5119789;28;20390;-74
2022/12/22 03:36:33;;;;;;;14.00;7.35;;;10.60;97.70;;;;;;5137578;28;20027;-74
2022/12/22 03:38:59;;;;;;;17.48;8.23;;;10.60;97.70;;;;;;5136668;28;20049;-74
2022/12/22 03:46:53;;;;;;;16.27;7.97;;;10.60;97.60;;;;;;5137648;28;20030;-74
2022/12/22 03:49:21;;;;;;;16.58;8.38;;;10.60;97.50;;;;;;5137255;28;20031;-74
2022/12/22 03:51:49;;;;;;;13.13;7.03;;;10.60;97.50;;;;;;5136285;28;20045;-74
2022/12/22 03:54:23;;;;;;;14.73;7.07;;;10.60;97.50;;;;;;5137254;28;20027;-74
2022/12/22 03:56:50;;;;;;;12.90;7.35;;;10.60;97.40;;;;;;5136579;28;20053;-74
2022/12/22 03:59:17;;;;;;;14.05;7.20;;;10.60;97.40;;;;;;5136313;28;20023;-74
2022/12/22 04:01:49;;;;;;;43.92;7.93;;;10.60;97.40;;;;;;5137123;28;20043;-73
2022/12/22 04:04:17;;;;;;;32.08;8.00;;;10.60;97.30;;;;;;5137234;28;20050;-74
2022/12/22 04:06:44;;;;;;;14.85;7.18;;;10.60;97.20;;;;;;5137016;28;20020;-74
2022/12/22 04:09:09;;;;;;;30.15;7.57;;;10.60;97.30;;;;;;5136600;28;20020;-74
2022/12/22 04:14:20;;;;;;;57.75;8.23;;;10.60;97.20;;;;;;5136839;28;20054;-74
2022/12/22 04:16:46;;;;;;;26.73;7.65;;;10.50;97.10;;;;;;5136839;28;20015;-74
2022/12/22 04:19:12;;;;;;;15.38;6.85;;;10.50;97.10;;;;;;5135922;28;20027;-74
2022/12/22 04:21:37;;;;;;;22.25;7.85;;;10.50;97.10;;;;;;5135790;28;20046;-74
2022/12/22 04:24:03;;;;;;;19.63;7.88;;;10.50;97.10;;;;;;5135630;28;20099;-74
2022/12/22 04:26:29;;;;;;;81.88;9.63;;;10.50;97.10;;;;;;5135664;28;20027;-74
2022/12/22 04:28:55;;;;;;;146.15;10.65;;;10.50;97.10;;;;;;5136682;28;20027;-74
2022/12/22 04:31:22;;;;;;;111.75;10.35;;;10.50;96.90;;;;;;5135564;28;20035;-74
2022/12/22 04:33:48;;;;;;;134.43;10.85;;;10.50;96.90;;;;;;5136479;28;20016;-74
2022/12/22 04:36:14;;;;;;;170.18;11.15;;;10.50;96.90;;;;;;5136426;28;20023;-74
2022/12/22 04:38:39;;;;;;;32.13;7.88;;;10.40;96.90;;;;;;5135338;28;20023;-74
2022/12/22 04:41:06;;;;;;;43.13;8.55;;;10.40;97.00;;;;;;5135320;28;20032;-74
2022/12/22 04:43:32;;;;;;;23.38;8.13;;;10.40;97.10;;;;;;5135303;28;20024;-74
2022/12/22 04:45:57;;;;;;;18.42;7.93;;;10.40;97.10;;;;;;5118167;28;20035;-74
2022/12/22 04:48:24;;;;;;;18.67;8.20;;;10.40;97.10;;;;;;5135185;28;20027;-74
2022/12/22 04:50:52;;;;;;;18.83;7.70;;;10.40;97.00;;;;;;5136118;28;20024;-74
2022/12/22 04:53:18;;;;;;;15.00;7.43;;;10.40;97.00;;;;;;5136034;28;20067;-74
2022/12/22 04:55:49;;;;;;;17.50;7.18;;;10.40;97.00;;;;;;5136090;28;20020;-74
2022/12/22 04:58:14;;;;;;;15.77;7.82;;;10.40;97.00;;;;;;5135984;28;20027;-74
2022/12/22 05:00:40;;;;;;;14.60;7.50;;;10.40;96.90;;;;;;5135042;28;20032;-74
2022/12/22 05:03:07;;;;;;;26.60;7.50;;;10.40;97.00;;;;;;5135928;28;20087;-74
2022/12/22 05:05:34;;;;;;;89.13;8.38;;;10.40;96.90;;;;;;5134920;28;20047;-74
2022/12/22 05:08:00;;;;;;;32.88;7.13;;;10.50;96.80;;;;;;5135732;28;20034;-73
2022/12/22 05:10:25;;;;;;;22.15;7.40;;;10.50;96.80;;;;;;5135722;28;20020;-73
2022/12/22 05:12:54;;;;;;;100.72;8.60;;;10.40;96.80;;;;;;5134772;28;20023;-74
2022/12/22 05:15:20;;;;;;;100.78;9.18;;;10.50;96.70;;;;;;5135463;28;20047;-74
2022/12/22 05:17:46;;;;;;;77.45;8.98;;;10.50;96.70;;;;;;5135645;28;20020;-74
2022/12/22 05:20:12;;;;;;;24.20;7.38;;;10.50;96.70;;;;;;5135570;28;20055;-74
2022/12/22 05:22:37;;;;;;;24.10;7.13;;;10.40;96.70;;;;;;5135511;28;20050;-74
2022/12/22 05:25:03;;;;;;;15.20;7.03;;;10.40;96.70;;;;;;5135509;28;20087;-74
2022/12/22 05:27:29;;;;;;;14.20;7.05;;;10.40;97.10;;;;;;5134596;28;20031;-74
2022/12/22 05:29:55;;;;;;;13.85;6.80;;;10.40;96.70;;;;;;5135309;28;20111;-74
2022/12/22 05:32:21;;;;;;;19.00;7.28;;;10.40;96.70;;;;;;5134438;28;20111;-74
2022/12/22 05:34:46;;;;;;;15.00;7.13;;;10.40;96.70;;;;;;5135414;28;20084;-74
2022/12/22 05:37:12;;;;;;;15.27;7.07;;;10.40;96.70;;;;;;5135248;28;20027;-74
2022/12/22 05:39:39;;;;;;;14.52;7.63;;;10.40;96.70;;;;;;5135317;28;20114;-74
2022/12/22 05:42:04;;;;;;;14.05;6.50;;;10.40;96.70;;;;;;5134245;28;20027;-74
2022/12/22 05:44:30;;;;;;;14.70;7.32;;;10.40;96.70;;;;;;5117284;28;20027;-74
2022/12/22 05:46:55;;;;;;;15.98;6.72;;;10.40;96.70;;;;;;5134093;28;20036;-74
2022/12/22 05:49:21;;;;;;;14.95;7.40;;;10.40;96.60;;;;;;5133763;28;20035;-74
2022/12/22 05:51:47;;;;;;;13.80;7.15;;;10.40;96.60;;;;;;5133784;28;20051;-74
2022/12/22 05:54:13;;;;;;;15.57;7.68;;;10.40;96.60;;;;;;5116998;28;20033;-74
2022/12/22 05:56:38;;;;;;;34.60;8.85;;;10.40;96.60;;;;;;5134857;28;20083;-74
2022/12/22 05:59:04;;;;;;;17.60;7.30;;;10.40;96.60;;;;;;5133886;28;20039;-73
2022/12/22 06:01:29;;;;;;;23.73;7.60;;;10.40;96.60;;;;;;5133935;28;20033;-74
2022/12/22 06:03:55;;;;;;;15.23;7.30;;;10.40;96.50;;;;;;5134736;28;20579;-73
2022/12/22 06:06:21;;;;;;;19.05;7.75;;;10.40;96.50;;;;;;5133746;28;20574;-73
2022/12/22 06:08:46;;;;;;;30.67;7.68;;;10.40;96.50;;;;;;5133556;28;20099;-74
2022/12/22 06:11:16;;;;;;;15.13;7.10;;;10.40;96.50;;;;;;5134643;28;20052;-74
2022/12/22 06:13:43;;;;;;;18.95;7.95;;;10.50;96.50;;;;;;5117398;28;20083;-74
2022/12/22 06:16:08;;;;;;;14.15;7.03;;;10.50;96.50;;;;;;5133445;28;20047;-74
2022/12/22 06:18:34;;;;;;;16.75;7.55;;;10.50;96.50;;;;;;5134496;28;20052;-74
2022/12/22 06:21:00;;;;;;;18.48;7.72;;;10.50;96.50;;;;;;5134450;28;20030;-74
2022/12/22 06:23:25;;;;;;;38.28;8.60;;;10.50;96.50;;;;;;5134400;28;20031;-74
2022/12/22 06:25:59;;;;;;;31.33;8.30;;;10.50;96.50;;;;;;5134356;28;20019;-74
2022/12/22 06:28:26;;;;;;;34.03;7.82;;;10.50;96.50;;;;;;5133254;28;20023;-74
2022/12/22 06:30:53;;;;;;;18.17;7.53;;;10.50;96.50;;;;;;5134196;28;20028;-74
2022/12/22 06:33:19;;;;;;;16.73;7.57;;;10.50;96.50;;;;;;5134280;28;20020;-74
2022/12/22 06:35:44;;;;;;;17.33;7.82;;;10.50;96.60;;;;;;5134335;28;20024;-74
2022/12/22 06:38:10;;;;;;;19.38;7.78;;;10.50;96.60;;;;;;5099278;28;20016;-74
2022/12/22 06:40:36;;;;;;;15.18;6.97;;;10.50;96.70;;;;;;5133206;28;20640;-74
2022/12/22 06:43:07;;;;;;;16.23;7.03;;;10.50;96.70;;;;;;5134133;28;20031;-74
2022/12/22 06:45:38;;;;;;;14.77;7.17;;;10.50;96.70;;;;;;5133135;28;20099;-74
2022/12/22 06:48:04;;;;;;;14.60;6.22;;;10.60;96.80;;;;;;5134224;28;20027;-74
2022/12/22 06:50:30;;;;;;;16.75;7.03;;;10.50;96.80;;;;;;5099199;28;20041;-74
2022/12/22 06:52:56;;;;;;;16.30;6.85;;;10.50;96.90;;;;;;5134009;28;20032;-73
2022/12/22 06:55:22;;;;;;;16.92;7.07;;;10.50;96.90;;;;;;5133980;28;20027;-74
2022/12/22 06:57:47;;;;;;;15.60;6.68;;;10.50;96.90;;;;;;5132957;28;20030;-73
2022/12/22 07:00:13;;;;;;;14.70;6.07;;;10.50;96.90;;;;;;5133027;28;20036;-74
2022/12/22 07:02:39;;;;;;;18.45;7.07;;;10.60;97.00;;;;;;5135788;28;20035;-74
2022/12/22 07:05:05;;;;;;;18.05;7.30;;;10.60;97.00;;;;;;5137251;28;20020;-74
2022/12/22 07:07:30;;;;;;;17.65;7.35;;;10.60;97.00;;;;;;5138064;28;20024;-74
2022/12/22 07:09:56;;;;;;;19.38;7.43;;;10.60;97.00;;;;;;5136944;28;20035;-73
2022/12/22 07:12:22;;;;;;;19.67;7.50;;;10.60;97.00;;;;;;5120039;28;20016;-74
2022/12/22 07:14:48;;;;;;;20.63;8.20;;;10.60;97.10;;;;;;5137817;28;20047;-74
2022/12/22 07:17:14;;;;;;;26.73;9.35;;;10.60;97.50;;;;;;5136966;28;20027;-74
2022/12/22 07:19:40;;;;;;;23.67;8.88;;;10.60;97.20;;;;;;5119852;28;20045;-74
2022/12/22 07:22:05;;;;;;;23.00;8.35;;;10.60;97.10;;;;;;5136997;28;20027;-74
2022/12/22 07:24:31;;;;;;;26.88;9.00;;;10.60;97.20;;;;;;5136929;28;20039;-74
2022/12/22 07:26:57;;;;;;;26.63;9.48;;;10.60;97.10;;;;;;5137821;28;20079;-74
2022/12/22 07:29:23;;;;;;;27.48;9.88;;;10.60;97.10;;;;;;5137649;28;20054;-74
2022/12/22 07:31:48;;;;;;;24.00;9.25;;;10.60;97.10;;;;;;5137694;28;20024;-74
2022/12/22 07:34:14;;;;;;;24.23;8.82;;;10.60;97.10;;;;;;5137609;28;20027;-74
2022/12/22 07:36:40;;;;;;;27.35;9.48;;;10.60;97.10;;;;;;5137591;28;20103;-74
2022/12/22 07:39:07;;;;;;;28.23;9.35;;;10.60;97.00;;;;;;5119559;28;20026;-74
2022/12/22 07:44:16;;;;;;;30.27;10.07;;;10.60;97.00;;;;;;5136954;28;20042;-74
2022/12/22 07:46:42;;;;;;;28.08;9.77;;;10.60;97.00;;;;;;5137390;28;20035;-74
2022/12/22 07:51:58;;;;;;;29.83;9.48;;;10.60;97.00;;;;;;5137579;28;20046;-74
2022/12/22 07:54:24;;;;;;;27.50;9.88;;;10.60;96.90;;;;;;5136361;28;20028;-74
2022/12/22 07:56:50;;;;;;;29.48;10.05;;;10.60;96.80;;;;;;5137248;28;20079;-74
2022/12/22 07:59:15;;;;;;;34.67;11.10;;;10.60;96.60;;;;;;5119091;28;20041;-74
2022/12/22 08:01:42;;;;;;;29.02;11.00;;;10.50;96.70;;;;;;5137186;28;20046;-74
2022/12/22 08:04:08;;;;;;;35.10;10.50;;;10.50;96.60;;;;;;5136034;28;20024;-74
2022/12/22 08:06:35;;;;;;;34.17;9.65;;;10.50;96.60;;;;;;5119170;28;20026;-74
2022/12/22 08:09:01;;;;;;;30.95;10.93;;;10.50;96.60;;;;;;5135899;28;20065;-74
2022/12/22 08:11:26;;;;;;;31.20;10.23;;;10.50;96.60;;;;;;5118936;28;20031;-74
2022/12/22 08:13:52;;;;;;;33.08;11.23;;;10.50;96.60;;;;;;5136445;28;20032;-74
2022/12/22 08:16:20;;;;;;;30.17;10.60;;;10.50;96.50;;;;;;5118651;28;20048;-74
2022/12/22 08:18:45;;;;;;;30.60;9.85;;;10.50;96.60;;;;;;5135713;28;20012;-74
2022/12/22 08:21:11;;;;;;;36.80;10.65;;;10.50;96.60;;;;;;5136819;28;20046;-74
2022/12/22 08:23:37;;;;;;;43.35;12.73;;;10.40;96.60;;;;;;5136646;28;20031;-74
2022/12/22 08:26:09;;;;;;;33.28;11.88;;;10.40;96.60;;;;;;5136631;28;20032;-73
2022/12/22 08:28:40;;;;;;;32.65;11.55;;;10.40;96.70;;;;;;5136670;28;20050;-74
2022/12/22 08:31:06;;;;;;;44.17;11.93;;;10.40;96.60;;;;;;5135512;28;20039;-74
2022/12/22 08:33:32;;;;;;;35.63;10.00;;;10.40;96.60;;;;;;5136475;28;20019;-74
2022/12/22 08:35:58;;;;;;;41.78;11.30;;;10.40;96.50;;;;;;5136468;28;20068;-74
2022/12/22 08:38:24;;;;;;;38.75;11.05;;;10.30;96.40;;;;;;5118530;28;20024;-74
2022/12/22 08:40:50;;;;;;;32.25;10.52;;;10.30;96.40;;;;;;5135266;28;20034;-74
2022/12/22 08:43:17;;;;;;;45.40;11.45;;;10.40;96.40;;;;;;5136327;28;20020;-74
2022/12/22 08:45:42;;;;;;;36.00;11.63;;;10.30;96.30;;;;;;5136287;28;20028;-73
2022/12/22 08:48:11;;;;;;;37.88;11.73;;;10.30;96.30;;;;;;5118161;28;20177;-73
2022/12/22 08:50:37;;;;;;;35.40;10.73;;;10.30;96.20;;;;;;5135060;28;20032;-73
2022/12/22 08:53:04;;;;;;;37.67;11.50;;;10.30;96.20;;;;;;5136098;28;20083;-74
2022/12/22 08:55:30;;;;;;;37.00;10.55;;;10.40;96.20;;;;;;5136105;28;20069;-73
2022/12/22 08:57:56;;;;;;;39.25;10.77;;;10.30;96.10;;;;;;5136055;28;20027;-74
2022/12/22 09:00:22;;;;;;;38.92;10.57;;;10.40;96.10;;;;;;5135233;28;20424;-74
2022/12/22 09:02:47;;;;;;;43.90;11.75;;;10.30;96.00;;;;;;5134927;28;20019;-73
2022/12/22 09:05:13;;;;;;;42.33;10.88;;;10.40;96.00;;;;;;5135058;28;20038;-74
2022/12/22 09:07:40;;;;;;;38.45;10.75;;;10.40;96.00;;;;;;5134807;28;20049;-74
2022/12/22 09:10:07;;;;;;;39.65;11.15;;;10.40;96.10;;;;;;5135759;28;20050;-74
2022/12/22 09:12:33;;;;;;;31.85;10.23;;;10.40;95.90;;;;;;5134666;28;20019;-73
2022/12/22 09:14:59;;;;;;;32.38;9.90;;;10.30;95.70;;;;;;5135530;28;20065;-74
2022/12/22 09:17:25;;;;;;;27.98;9.68;;;10.30;95.70;;;;;;5135635;28;20020;-73
2022/12/22 09:19:51;;;;;;;27.60;9.95;;;10.30;95.60;;;;;;5134702;28;20103;-74
2022/12/22 09:22:16;;;;;;;34.28;10.23;;;10.30;95.50;;;;;;5135492;28;20032;-73
2022/12/22 09:24:42;;;;;;;33.17;10.77;;;10.30;95.50;;;;;;5116645;28;20039;-74
2022/12/22 09:27:08;;;;;;;30.17;9.50;;;10.30;95.50;;;;;;5134608;28;20034;-74
2022/12/22 09:29:35;;;;;;;29.90;11.02;;;10.30;95.50;;;;;;5135343;28;20390;-74
2022/12/22 09:32:02;;;;;;;32.45;9.57;;;10.20;95.20;;;;;;5134353;28;20024;-74
2022/12/22 09:34:28;;;;;;;31.75;10.25;;;10.20;95.20;;;;;;5134382;28;20075;-74
2022/12/22 09:36:54;;;;;;;26.45;10.35;;;10.20;95.20;;;;;;5135278;28;20501;-73
2022/12/22 09:39:19;;;;;;;33.40;10.73;;;10.20;95.60;;;;;;5134289;28;20039;-74
2022/12/22 09:41:49;;;;;;;34.95;11.85;;;10.30;95.20;;;;;;5135158;28;20028;-74
2022/12/22 09:44:30;;;;;;;34.75;11.50;;;11.00;95.30;;;;;;5135265;28;20024;-74
2022/12/22 09:47:00;;;;;;;28.80;11.35;;;11.30;94.30;;;;;;5135093;28;20023;-74
2022/12/22 09:49:26;;;;;;;30.25;10.18;;;11.40;93.30;;;;;;5133904;28;20019;-73
2022/12/22 09:51:56;;;;;;;28.45;10.50;;;11.40;93.30;;;;;;5134975;28;20016;-74
2022/12/22 09:54:24;;;;;;;29.08;10.38;;;11.80;93.20;;;;;;5134988;28;20011;-74
2022/12/22 09:56:50;;;;;;;29.15;10.85;;;12.20;92.30;;;;;;5133949;28;20039;-74
2022/12/22 09:59:18;;;;;;;23.92;9.30;;;12.70;91.50;;;;;;5133858;28;20032;-74
2022/12/22 10:02:04;;;;;;;23.92;9.95;;;13.20;91.00;;;;;;5134744;28;20027;-74
2022/12/22 10:04:45;;;;;;;25.85;10.60;;;13.80;90.10;;;;;;5134824;28;20023;-74
2022/12/22 10:07:38;;;;;;;28.00;10.43;;;13.80;86.90;;;;;;5133968;28;20024;-74
2022/12/22 10:10:27;;;;;;;26.95;10.05;;;13.60;85.90;;;;;;5133589;28;20031;-74
2022/12/22 10:12:58;;;;;;;27.13;12.07;;;13.20;86.90;;;;;;5134670;28;20028;-74
2022/12/22 10:15:26;;;;;;;31.98;12.50;;;12.90;87.50;;;;;;5134370;28;20085;-74
2022/12/22 10:18:07;;;;;;;26.27;11.27;;;12.80;88.30;;;;;;5133562;28;20030;-74
2022/12/22 10:20:33;;;;;;;31.08;11.63;;;12.90;88.60;;;;;;5134500;28;20043;-74
2022/12/22 10:23:05;;;;;;;27.02;11.45;;;13.40;87.30;;;;;;5134467;28;20360;-74
2022/12/22 10:25:36;;;;;;;32.05;13.82;;;13.70;84.90;;;;;;5134481;28;20046;-74
2022/12/22 10:28:16;;;;;;;32.03;13.82;;;13.80;84.80;;;;;;5133337;28;20024;-73
2022/12/22 10:30:44;;;;;;;25.85;11.25;;;13.70;84.20;;;;;;5134179;28;20052;-74
2022/12/22 10:33:13;;;;;;;24.30;11.20;;;14.00;85.50;;;;;;5134312;28;20020;-73
2022/12/22 10:35:51;;;;;;;28.38;12.05;;;14.00;84.20;;;;;;5134136;28;20012;-74
2022/12/22 10:38:23;;;;;;;23.52;10.45;;;13.60;83.60;;;;;;5134249;28;20028;-74
2022/12/22 10:40:55;;;;;;;20.23;9.18;;;13.30;84.80;;;;;;5134261;28;20027;-73
2022/12/22 10:43:27;;;;;;;26.75;9.95;;;13.00;85.40;;;;;;5134311;28;20020;-74
2022/12/22 10:45:55;;;;;;;24.35;9.98;;;12.70;86.10;;;;;;5133119;28;20057;-73
2022/12/22 10:48:30;;;;;;;50.75;17.45;;;12.50;86.80;;;;;;5134105;28;20024;-73
2022/12/22 10:50:57;;;;;;;22.92;9.75;;;12.30;87.40;;;;;;5133971;28;20027;-74
2022/12/22 10:53:42;;;;;;;24.10;10.35;;;12.10;88.30;;;;;;5133980;28;20020;-73
2022/12/22 10:56:18;;;;;;;25.70;10.90;;;11.90;88.30;;;;;;5133301;28;20016;-73
2022/12/22 10:59:08;;;;;;;19.40;9.77;;;11.70;88.40;;;;;;5134154;28;20035;-73
2022/12/22 11:01:35;;;;;;;25.58;11.88;;;11.60;88.60;;;;;;5133481;28;20040;-74
2022/12/22 11:04:27;;;;;;;26.10;10.23;;;11.50;89.90;;;;;;5133929;28;20028;-74
2022/12/22 11:07:08;;;;;;;24.27;10.48;;;11.50;90.30;;;;;;5129193;28;20043;-73
2022/12/22 11:09:33;;;;;;;23.88;10.73;;;11.50;90.40;;;;;;5133758;28;20030;-74
2022/12/22 11:12:12;;;;;;;23.25;9.93;;;11.60;90.60;;;;;;5134005;28;20024;-74
2022/12/22 11:14:47;;;;;;;26.30;13.32;;;11.50;91.00;;;;;;5133592;28;20067;-74
2022/12/22 11:17:15;;;;;;;23.77;11.68;;;11.40;90.30;;;;;;5133842;28;20083;-73
2022/12/22 11:20:06;;;;;;;22.88;12.00;;;11.40;90.60;;;;;;5133719;28;20027;-74
2022/12/22 11:22:46;;;;;;;31.77;12.20;;;11.30;90.70;;;;;;5133182;28;20060;-74
2022/12/22 11:25:21;;;;;;;27.92;12.25;;;11.20;90.70;;;;;;5133767;28;20079;-74
2022/12/22 11:28:06;;;;;;;29.67;12.77;;;11.20;90.90;;;;;;5133866;28;20027;-74
2022/12/22 11:30:56;;;;;;;25.70;11.23;;;11.20;90.80;;;;;;5133589;28;20027;-74
2022/12/22 11:33:33;;;;;;;26.70;11.82;;;11.30;90.90;;;;;;5132675;28;20019;-74
2022/12/22 11:36:08;;;;;;;22.60;9.75;;;11.30;90.90;;;;;;5132669;28;20031;-73
2022/12/22 11:38:54;;;;;;;24.10;10.35;;;11.30;90.40;;;;;;5133666;28;20024;-74
2022/12/22 11:41:38;;;;;;;14.10;6.65;;;11.40;90.40;;;;;;5132678;28;20031;-74
2022/12/22 11:44:29;;;;;;;16.15;6.90;;;11.30;89.90;;;;;;5133671;28;20149;-73
2022/12/22 11:47:05;;;;;;;17.83;6.75;;;11.20;90.00;;;;;;5133568;28;20020;-74
2022/12/22 11:49:44;;;;;;;18.75;7.35;;;11.20;89.10;;;;;;5136590;28;20020;-74
2022/12/22 11:52:33;;;;;;;18.00;7.80;;;11.20;89.70;;;;;;5137425;28;20019;-73
2022/12/22 11:55:04;;;;;;;20.65;8.93;;;11.30;90.20;;;;;;5137285;27;20069;-73
2022/12/22 11:57:58;;;;;;;16.67;6.93;;;11.30;90.50;;;;;;5137224;28;20024;-73
2022/12/22 12:00:23;;;;;;;17.02;7.25;;;11.40;90.20;;;;;;5137203;28;20047;-73
2022/12/22 12:03:10;;;;;;;17.70;7.32;;;11.40;89.70;;;;;;5137336;28;20028;-73
2022/12/22 12:05:42;;;;;;;20.55;8.48;;;11.30;89.40;;;;;;5137115;28;20079;-73
2022/12/22 12:08:25;;;;;;;20.88;7.30;;;11.40;90.00;;;;;;5137006;28;20037;-74
2022/12/22 12:10:56;;;;;;;16.80;5.75;;;11.50;90.00;;;;;;5137011;28;20016;-74
2022/12/22 12:13:22;;;;;;;13.32;6.32;;;11.50;89.70;;;;;;5136055;28;20016;-74
2022/12/22 12:15:59;;;;;;;14.43;6.28;;;11.40;88.70;;;;;;5136624;28;20051;-74
2022/12/22 12:18:44;;;;;;;16.13;6.05;;;11.40;88.80;;;;;;5136053;28;20020;-74
2022/12/22 12:21:48;;;;;;;12.52;5.80;;;11.30;88.00;;;;;;5136975;28;20366;-74
2022/12/22 12:24:23;;;;;;;17.50;5.70;;;11.30;88.20;;;;;;5132601;28;20099;-73
2022/12/22 12:26:57;;;;;;;14.75;6.78;;;11.20;88.90;;;;;;5136890;28;20024;-74
2022/12/22 12:29:25;;;;;;;13.80;6.93;;;11.20;88.80;;;;;;5135724;28;20043;-74
2022/12/22 12:32:02;;;;;;;20.05;8.23;;;11.40;88.50;;;;;;5136648;28;20023;-74
2022/12/22 12:34:33;;;;;;;14.73;7.55;;;11.40;87.70;;;;;;5136552;28;20027;-74
2022/12/22 12:37:28;;;;;;;22.60;10.57;;;11.30;87.40;;;;;;5135507;28;20016;-74
2022/12/22 12:40:28;;;;;;;24.52;9.85;;;11.30;88.20;;;;;;5130839;28;20497;-73
2022/12/22 12:42:55;;;;;;;23.15;10.13;;;11.20;87.70;;;;;;5135364;28;20031;-73
2022/12/22 12:45:40;;;;;;;23.08;10.32;;;11.20;88.40;;;;;;5135447;28;20034;-73
2022/12/22 12:48:21;;;;;;;20.98;10.90;;;11.10;88.50;;;;;;5135264;28;20030;-74
2022/12/22 12:50:47;;;;;;;22.00;10.75;;;11.10;88.60;;;;;;5136139;28;20039;-73
2022/12/22 12:53:13;;;;;;;28.40;11.25;;;11.10;88.80;;;;;;5135197;28;20028;-74
2022/12/22 12:55:51;;;;;;;30.42;10.75;;;11.10;89.00;;;;;;5135241;28;20023;-74
2022/12/22 12:58:38;;;;;;;24.27;10.55;;;11.10;89.10;;;;;;5136067;27;20023;-74
2022/12/22 13:01:28;;;;;;;25.45;11.15;;;11.00;88.80;;;;;;5133665;28;20035;-74
2022/12/22 13:03:54;;;;;;;26.40;11.23;;;11.00;89.40;;;;;;5135701;28;20035;-74
2022/12/22 13:06:58;;;;;;;22.88;10.93;;;11.00;89.70;;;;;;5101031;28;20035;-74
2022/12/22 13:09:28;;;;;;;26.45;11.10;;;11.00;89.40;;;;;;5073210;28;20036;-74
2022/12/22 13:11:55;;;;;;;25.20;11.38;;;11.00;89.90;;;;;;5073244;28;20040;-73
2022/12/22 13:14:57;;;;;;;24.00;10.95;;;11.00;90.00;;;;;;5093990;28;20035;-74
2022/12/22 13:17:48;;;;;;;23.42;9.85;;;10.90;89.80;;;;;;5073080;28;20025;-73
2022/12/22 13:20:36;;;;;;;20.52;8.18;;;10.80;89.70;;;;;;5132624;28;20044;-74
2022/12/22 13:23:09;;;;;;;15.45;7.00;;;10.70;88.80;;;;;;5134696;28;20025;-74
2022/12/22 13:25:47;;;;;;;17.92;7.95;;;10.70;88.80;;;;;;5135553;28;20028;-74
2022/12/22 13:28:18;;;;;;;14.13;7.10;;;10.60;89.20;;;;;;5134578;28;20056;-74
2022/12/22 13:30:50;;;;;;;15.40;6.70;;;10.60;88.90;;;;;;5134414;28;20510;-74
2022/12/22 13:33:19;;;;;;;18.00;7.60;;;10.70;89.50;;;;;;5134415;28;20042;-73
2022/12/22 13:35:47;;;;;;;14.45;7.25;;;10.70;88.80;;;;;;5135321;28;20016;-74
2022/12/22 13:38:29;;;;;;;11.90;6.63;;;10.70;89.50;;;;;;5135290;28;20026;-73
2022/12/22 13:40:56;;;;;;;17.70;7.63;;;10.80;89.60;;;;;;5135237;27;20035;-74
2022/12/22 13:43:25;;;;;;;17.52;7.45;;;10.80;89.50;;;;;;5135170;28;20030;-74
2022/12/22 13:45:54;;;;;;;17.85;8.07;;;10.80;89.70;;;;;;5135141;28;20087;-73
2022/12/22 13:48:44;;;;;;;16.55;8.35;;;10.90;89.90;;;;;;5135109;28;20020;-73
2022/12/22 13:51:21;;;;;;;18.50;7.25;;;10.80;89.70;;;;;;5135049;28;20028;-73
2022/12/22 13:53:50;;;;;;;16.65;7.28;;;10.80;89.60;;;;;;5135052;28;20072;-74
2022/12/22 13:56:20;;;;;;;17.40;7.63;;;10.80;90.00;;;;;;5134955;28;20019;-73
2022/12/22 13:58:56;;;;;;;19.75;8.68;;;10.80;90.00;;;;;;5134984;27;20079;-73
2022/12/22 14:01:22;;;;;;;20.38;8.73;;;10.70;90.00;;;;;;5133890;28;20024;-74
2022/12/22 14:03:51;;;;;;;25.50;8.05;;;10.80;90.20;;;;;;5133898;28;20054;-73
2022/12/22 14:06:30;;;;;;;19.92;7.85;;;10.80;90.30;;;;;;5134771;28;20401;-73
2022/12/22 14:09:16;;;;;;;16.30;8.20;;;10.70;90.40;;;;;;5134779;28;20466;-74
2022/12/22 14:11:49;;;;;;;19.50;8.05;;;10.70;90.40;;;;;;5134195;28;20023;-74
2022/12/22 14:14:27;;;;;;;17.65;7.50;;;10.70;90.50;;;;;;5133506;28;20016;-75
2022/12/22 14:16:56;;;;;;;20.13;8.35;;;10.70;90.50;;;;;;5134670;28;20135;-73
2022/12/22 14:19:23;;;;;;;15.60;7.53;;;10.70;90.60;;;;;;5134591;28;20075;-73
2022/12/22 14:22:07;;;;;;;17.90;8.07;;;10.70;90.70;;;;;;5134505;28;20028;-73
2022/12/22 14:24:40;;;;;;;19.08;7.97;;;10.80;90.60;;;;;;5134650;28;20462;-74
2022/12/22 14:27:23;;;;;;;16.63;7.57;;;10.80;90.60;;;;;;5134371;28;20043;-74
2022/12/22 14:29:49;;;;;;;17.08;7.63;;;10.70;90.50;;;;;;5133433;28;20023;-74
2022/12/22 14:32:45;;;;;;;19.20;8.85;;;10.70;90.50;;;;;;5133339;28;20050;-74
2022/12/22 14:35:19;;;;;;;20.25;8.68;;;10.80;90.70;;;;;;5134325;28;20026;-73
2022/12/22 14:37:49;;;;;;;19.98;9.10;;;10.90;90.80;;;;;;5133258;28;20026;-74
2022/12/22 14:40:38;;;;;;;18.85;9.80;;;10.90;90.70;;;;;;5134296;28;20494;-74
2022/12/22 14:43:25;;;;;;;17.48;8.07;;;10.90;90.70;;;;;;5134188;28;20055;-74
2022/12/22 14:45:59;;;;;;;20.52;7.72;;;10.90;90.70;;;;;;5133240;28;20438;-75
2022/12/22 14:48:44;;;;;;;19.63;8.02;;;10.90;90.80;;;;;;5133005;28;20031;-74
2022/12/22 14:51:14;;;;;;;19.45;8.75;;;10.90;90.80;;;;;;5134037;28;20031;-75
2022/12/22 14:53:48;;;;;;;19.42;8.15;;;10.80;90.90;;;;;;5134081;28;20031;-75
2022/12/22 14:56:16;;;;;;;18.55;8.23;;;10.80;90.90;;;;;;5134045;28;20023;-74
2022/12/22 14:58:43;;;;;;;15.25;8.50;;;10.80;91.00;;;;;;5133963;28;20037;-75
2022/12/22 15:01:26;;;;;;;20.48;8.70;;;10.80;91.10;;;;;;5133923;28;20036;-74
2022/12/22 15:03:55;;;;;;;20.45;9.00;;;10.80;91.20;;;;;;5133976;28;20026;-74
2022/12/22 15:06:23;;;;;;;16.77;8.57;;;10.80;91.30;;;;;;5132853;28;20031;-74
2022/12/22 15:08:52;;;;;;;19.88;9.10;;;10.80;91.40;;;;;;5133846;28;20024;-74
2022/12/22 15:11:19;;;;;;;20.67;9.02;;;10.80;91.50;;;;;;5133807;28;20023;-74
2022/12/22 15:13:48;;;;;;;18.33;8.52;;;10.80;91.60;;;;;;5133840;28;20020;-74
2022/12/22 15:16:16;;;;;;;18.83;8.80;;;10.80;91.60;;;;;;5132758;28;20068;-74
2022/12/22 15:18:42;;;;;;;17.58;8.13;;;10.70;91.70;;;;;;5133842;28;20039;-74
2022/12/22 15:21:12;;;;;;;19.17;8.00;;;10.70;91.80;;;;;;5132813;28;20024;-74
2022/12/22 15:23:38;;;;;;;16.88;7.53;;;10.70;91.80;;;;;;5135711;28;20019;-74
2022/12/22 15:26:04;;;;;;;12.07;5.65;;;10.60;91.90;;;;;;5137687;28;20053;-75
2022/12/22 15:28:30;;;;;;;14.20;6.32;;;10.50;92.00;;;;;;5137028;28;20031;-73
2022/12/22 15:30:57;;;;;;;11.15;4.90;;;10.50;92.20;;;;;;5137617;28;20035;-73
2022/12/22 15:33:23;;;;;;;19.15;7.57;;;10.30;92.30;;;;;;5137702;28;20020;-74
2022/12/22 15:35:49;;;;;;;15.82;6.20;;;10.30;92.50;;;;;;5137699;28;20030;-74
2022/12/22 15:38:23;;;;;;;15.02;6.30;;;10.30;92.60;;;;;;5136693;28;20032;-74
2022/12/22 15:40:49;;;;;;;12.88;7.10;;;10.20;92.80;;;;;;5137596;28;20023;-73
2022/12/22 15:43:15;;;;;;;12.77;5.95;;;10.20;93.00;;;;;;5137513;28;20023;-74
2022/12/22 15:45:42;;;;;;;14.57;6.30;;;10.20;93.00;;;;;;5136477;28;20023;-74
2022/12/22 15:48:13;;;;;;;14.50;6.93;;;10.20;93.10;;;;;;5119695;28;20024;-74
2022/12/22 15:50:42;;;;;;;13.13;5.85;;;10.20;93.10;;;;;;5137377;28;20020;-74
2022/12/22 15:53:14;;;;;;;13.10;5.93;;;10.20;93.20;;;;;;5137348;28;20079;-74
2022/12/22 15:55:51;;;;;;;14.17;6.07;;;10.20;93.20;;;;;;5137426;27;20020;-74
2022/12/22 15:58:20;;;;;;;10.25;5.47;;;10.20;93.20;;;;;;5137434;28;20019;-74
2022/12/22 16:00:45;;;;;;;12.15;6.35;;;10.20;93.40;;;;;;5136265;28;20035;-74
2022/12/22 16:03:12;;;;;;;16.52;6.95;;;10.20;93.40;;;;;;5137090;28;20035;-74
2022/12/22 16:05:39;;;;;;;15.93;6.95;;;10.10;93.40;;;;;;5137083;28;20027;-75
2022/12/22 16:08:11;;;;;;;12.85;6.00;;;10.20;93.50;;;;;;5136959;28;20024;-74
2022/12/22 16:10:37;;;;;;;18.45;7.30;;;10.10;93.60;;;;;;5136027;28;20027;-75
2022/12/22 16:13:03;;;;;;;13.63;5.55;;;10.10;93.60;;;;;;5135968;28;20024;-74
2022/12/22 16:15:32;;;;;;;18.77;7.70;;;10.10;93.80;;;;;;5135718;28;20044;-74
2022/12/22 16:17:59;;;;;;;11.43;5.22;;;10.00;93.80;;;;;;5136871;27;20031;-74
2022/12/22 16:20:30;;;;;;;15.82;6.93;;;10.00;94.00;;;;;;5135915;28;20035;-75
2022/12/22 16:22:56;;;;;;;17.00;7.25;;;10.00;94.10;;;;;;5135862;28;20024;-75
2022/12/22 16:25:29;;;;;;;14.75;6.72;;;10.00;94.10;;;;;;5136002;28;20043;-75
2022/12/22 16:27:55;;;;;;;13.80;6.28;;;10.00;94.20;;;;;;5136762;28;20019;-75
2022/12/22 16:30:23;;;;;;;14.30;6.40;;;10.00;94.20;;;;;;5118530;28;20030;-74